EGNV

Durham Tees Valley Airport

Durham, United Kingdom
METAR EGNV 171620Z 20016KT 9999 SCT025 15/10 Q1014
Observed Flight Rules
Aug-17 @ 16:20 UTC (31 minutes ago) Visual Flight Rules
Wind Visibility Clouds
200° at 16 knots 10,000+ meters
  • Scattered at 2,500' AGL
Temperatures Readings
Current 15°C / 59°F
Dewpoint 10°C / 50°F
Humidity 72%
Altimeter 29.94" Hg
Pressure 1014 hPa
Elevation 37
METAR EGNV 171620Z 20016KT 9999 SCT025 15/10 Q1014
Observed Flight Rules
Aug-17 @ 16:20 UTC
(31 minutes ago)
VFR
Wind Visibility
200° at 16 knots 10,000+ meters
Clouds
  • Scattered at 2,500' AGL
Temperature Dewpoint
15°C / 59°F 10°C / 50°F
Humidity Altimeter Pressure
72% 29.94" Hg 1014 hPa